Time;durP1;ratioP1;P1;durP2;ratioP2;P2;SDS_P1;SDS_P2;PMS_P1;PMS_P2;Temp;Humidity;BMP_temperature;BMP_pressure;BME280_temperature;BME280_humidity;BME280_pressure;Samples;Min_cycle;Max_cycle;Signal;HPM_P1;HPM_P2
2023/12/11 00:01:53;;;;;;;9.40;3.40;;;10.70;99.90;;;;;;5045877;28;20423;-77
2023/12/11 00:04:20;;;;;;;11.82;3.08;;;10.80;99.90;;;;;;5046223;28;20409;-77
2023/12/11 00:06:47;;;;;;;9.95;3.58;;;10.70;99.90;;;;;;5045920;28;20808;-78
2023/12/11 00:09:15;;;;;;;10.15;3.38;;;10.70;99.90;;;;;;5041998;28;20443;-77
2023/12/11 00:11:42;;;;;;;9.88;3.00;;;10.70;99.90;;;;;;5045421;28;20852;-78
2023/12/11 00:14:08;;;;;;;10.45;2.90;;;10.80;99.90;;;;;;5046219;28;20413;-77
2023/12/11 00:16:35;;;;;;;11.00;3.30;;;10.80;99.90;;;;;;5040553;28;20437;-78
2023/12/11 00:19:02;;;;;;;11.97;3.40;;;10.90;99.90;;;;;;5046713;28;20409;-78
2023/12/11 00:21:29;;;;;;;11.50;3.40;;;10.90;99.90;;;;;;5043478;28;20785;-77
2023/12/11 00:23:56;;;;;;;10.80;3.30;;;10.90;99.90;;;;;;5044932;28;20429;-77
2023/12/11 00:26:24;;;;;;;9.93;3.38;;;10.90;99.90;;;;;;5042441;28;20433;-77
2023/12/11 00:28:50;;;;;;;9.73;3.30;;;10.90;99.90;;;;;;5050491;28;20417;-77
2023/12/11 00:31:17;;;;;;;9.75;3.22;;;10.90;99.90;;;;;;5032073;28;20433;-77
2023/12/11 00:33:44;;;;;;;10.95;3.10;;;10.90;99.90;;;;;;5047065;28;20530;-78
2023/12/11 00:36:11;;;;;;;7.22;2.70;;;10.90;99.90;;;;;;5038924;28;20429;-78
2023/12/11 00:38:38;;;;;;;12.60;3.50;;;10.90;99.90;;;;;;5033904;28;20436;-77
2023/12/11 00:41:05;;;;;;;10.05;2.90;;;10.80;99.90;;;;;;5043154;28;20424;-77
2023/12/11 00:43:33;;;;;;;9.27;2.90;;;10.80;99.90;;;;;;5044752;28;20413;-77
2023/12/11 00:46:00;;;;;;;9.85;3.03;;;10.80;99.90;;;;;;5040013;28;20430;-77
2023/12/11 00:48:26;;;;;;;10.82;3.75;;;10.80;99.90;;;;;;5039245;28;20444;-77
2023/12/11 00:50:53;;;;;;;12.43;3.20;;;10.70;99.90;;;;;;5034918;28;20417;-79
2023/12/11 00:53:20;;;;;;;10.20;3.05;;;10.70;99.90;;;;;;5036694;28;21014;-78
2023/12/11 00:55:47;;;;;;;10.83;3.17;;;10.70;99.90;;;;;;5039380;28;20484;-77
2023/12/11 00:58:13;;;;;;;9.87;2.70;;;10.70;99.90;;;;;;5036580;28;20432;-77
2023/12/11 01:00:42;;;;;;;9.95;3.17;;;10.80;99.90;;;;;;5043343;28;21185;-78
2023/12/11 01:03:08;;;;;;;10.82;3.55;;;10.80;99.90;;;;;;5044895;28;20417;-77
2023/12/11 01:05:35;;;;;;;9.02;2.90;;;10.80;99.90;;;;;;5045790;28;20425;-77
2023/12/11 01:08:02;;;;;;;8.07;2.97;;;10.80;99.90;;;;;;5044923;28;20548;-78
2023/12/11 01:10:29;;;;;;;10.15;3.03;;;10.80;99.90;;;;;;5045672;28;20593;-78
2023/12/11 01:12:56;;;;;;;9.45;2.50;;;10.80;99.90;;;;;;5035865;28;20422;-78
2023/12/11 01:15:23;;;;;;;8.67;2.90;;;10.80;99.90;;;;;;5042638;28;20433;-77
2023/12/11 01:17:51;;;;;;;11.82;3.38;;;10.80;99.90;;;;;;5045695;28;20492;-77
2023/12/11 01:20:18;;;;;;;9.35;3.20;;;10.70;99.90;;;;;;5045737;28;20512;-78
2023/12/11 01:22:44;;;;;;;11.45;3.38;;;10.70;99.90;;;;;;5033508;28;20435;-77
2023/12/11 01:25:11;;;;;;;12.52;3.00;;;10.80;99.90;;;;;;5044486;28;20417;-78
2023/12/11 01:27:38;;;;;;;11.10;2.90;;;10.80;99.90;;;;;;5037402;28;20496;-78
2023/12/11 01:30:07;;;;;;;8.13;3.00;;;10.80;99.90;;;;;;5044452;28;20914;-78
2023/12/11 01:32:34;;;;;;;12.10;3.10;;;10.80;99.90;;;;;;5041365;28;20459;-78
2023/12/11 01:35:02;;;;;;;13.05;4.78;;;10.80;99.90;;;;;;5042245;28;20422;-77
2023/12/11 01:37:29;;;;;;;10.75;2.80;;;10.80;99.90;;;;;;5045408;28;20410;-78
2023/12/11 01:39:56;;;;;;;14.30;3.08;;;10.80;99.90;;;;;;5028006;28;20419;-77
2023/12/11 01:42:22;;;;;;;9.95;3.03;;;10.80;99.90;;;;;;5042170;28;20525;-77
2023/12/11 01:44:49;;;;;;;10.82;3.92;;;10.80;99.90;;;;;;5037776;28;20417;-78
2023/12/11 01:47:16;;;;;;;9.25;2.72;;;10.80;99.90;;;;;;5040511;28;20433;-77
2023/12/11 01:49:44;;;;;;;9.13;3.10;;;10.80;99.90;;;;;;5034912;28;20418;-77
2023/12/11 01:52:12;;;;;;;10.48;3.00;;;10.90;99.90;;;;;;5043728;28;20761;-77
2023/12/11 01:54:39;;;;;;;9.85;2.80;;;10.90;99.90;;;;;;5037679;28;20905;-77
2023/12/11 01:57:08;;;;;;;10.88;3.28;;;10.80;99.90;;;;;;5030832;28;20407;-78
2023/12/11 01:59:35;;;;;;;11.15;3.40;;;10.80;99.90;;;;;;5033220;28;20426;-78
2023/12/11 02:02:02;;;;;;;7.80;3.38;;;10.80;99.90;;;;;;5038059;28;20864;-79
2023/12/11 02:04:29;;;;;;;9.13;2.53;;;10.90;99.90;;;;;;5046155;28;20552;-77
2023/12/11 02:06:57;;;;;;;8.13;2.88;;;10.90;99.90;;;;;;5047174;28;20512;-78
2023/12/11 02:09:26;;;;;;;12.35;3.50;;;10.90;99.90;;;;;;5055244;28;20641;-78
2023/12/11 02:11:55;;;;;;;10.40;3.20;;;10.90;99.90;;;;;;5041050;28;20448;-78
2023/12/11 02:14:22;;;;;;;10.73;3.10;;;11.00;99.90;;;;;;5065684;22;20431;-73
2023/12/11 02:16:49;;;;;;;8.25;3.00;;;11.00;99.90;;;;;;5053331;28;20429;-78
2023/12/11 02:19:16;;;;;;;8.90;2.60;;;11.00;99.90;;;;;;5066866;28;20433;-76
2023/12/11 02:21:43;;;;;;;9.02;2.92;;;11.00;99.90;;;;;;5062444;28;20417;-78
2023/12/11 02:24:16;;;;;;;8.80;2.97;;;11.00;99.90;;;;;;5060024;28;20841;-77
2023/12/11 02:26:44;;;;;;;11.15;3.20;;;11.00;99.90;;;;;;5067089;28;21054;-79
2023/12/11 02:29:11;;;;;;;10.55;3.30;;;11.10;99.90;;;;;;5069749;28;20471;-79
2023/12/11 02:31:39;;;;;;;9.10;3.30;;;11.10;99.90;;;;;;5069611;28;20510;-76
2023/12/11 02:34:05;;;;;;;10.60;3.65;;;11.00;99.90;;;;;;5074812;28;20483;-79
2023/12/11 02:36:32;;;;;;;10.15;2.80;;;11.10;99.90;;;;;;5077167;28;20471;-79
2023/12/11 02:38:59;;;;;;;10.05;3.60;;;11.10;99.90;;;;;;5078646;28;20412;-79
2023/12/11 02:41:26;;;;;;;8.75;2.85;;;11.10;99.90;;;;;;5078375;28;20439;-79
2023/12/11 02:43:54;;;;;;;10.50;3.85;;;11.10;99.90;;;;;;5079579;28;20432;-79
2023/12/11 02:46:21;;;;;;;8.77;2.97;;;11.20;99.90;;;;;;5065497;28;20495;-78
2023/12/11 02:48:47;;;;;;;11.07;3.40;;;11.10;99.90;;;;;;5069125;28;20918;-79
2023/12/11 02:51:16;;;;;;;10.52;2.92;;;11.10;99.90;;;;;;5069860;28;20425;-77
2023/12/11 02:53:42;;;;;;;8.20;3.00;;;11.10;99.90;;;;;;5069901;28;20408;-76
2023/12/11 02:56:10;;;;;;;10.57;3.28;;;11.00;99.90;;;;;;5069670;28;20981;-75
2023/12/11 02:58:36;;;;;;;11.60;3.60;;;10.90;99.90;;;;;;5077872;28;20443;-77
2023/12/11 03:01:05;;;;;;;9.48;3.08;;;11.00;99.90;;;;;;5078816;28;20415;-76
2023/12/11 03:03:32;;;;;;;12.63;3.20;;;11.00;99.90;;;;;;5090593;28;20400;-77
2023/12/11 03:05:58;;;;;;;12.68;3.85;;;11.00;99.90;;;;;;5081543;28;20507;-79
2023/12/11 03:08:25;;;;;;;12.57;3.30;;;11.00;99.90;;;;;;5077723;28;20420;-77
2023/12/11 03:10:52;;;;;;;6.97;2.50;;;11.00;99.90;;;;;;5079127;28;20990;-78
2023/12/11 03:13:19;;;;;;;10.52;3.22;;;11.00;99.90;;;;;;5078554;28;20507;-77
2023/12/11 03:15:45;;;;;;;8.23;2.85;;;11.00;99.90;;;;;;5071868;28;20514;-79
2023/12/11 03:18:14;;;;;;;8.25;2.63;;;11.00;99.90;;;;;;5066797;28;20414;-79
2023/12/11 03:20:40;;;;;;;9.82;2.58;;;11.00;99.90;;;;;;5069663;28;20407;-78
2023/12/11 03:23:07;;;;;;;10.70;3.60;;;11.00;99.90;;;;;;5072754;28;20411;-77
2023/12/11 03:25:34;;;;;;;9.40;2.50;;;11.10;99.90;;;;;;5072975;28;20415;-80
2023/12/11 03:28:01;;;;;;;12.32;2.75;;;11.00;99.90;;;;;;5071820;28;20458;-78
2023/12/11 03:30:28;;;;;;;9.82;2.60;;;11.00;99.90;;;;;;5071709;28;20439;-77
2023/12/11 03:32:55;;;;;;;8.55;2.47;;;11.00;99.90;;;;;;5072155;28;20781;-74
2023/12/11 03:35:23;;;;;;;9.93;3.07;;;11.00;99.90;;;;;;5064857;28;20415;-76
2023/12/11 03:37:50;;;;;;;10.25;2.88;;;11.00;99.90;;;;;;5072666;28;20416;-77
2023/12/11 03:40:17;;;;;;;10.32;3.58;;;11.00;99.90;;;;;;5072557;28;20412;-76
2023/12/11 03:42:44;;;;;;;7.95;2.90;;;11.00;99.90;;;;;;5072626;28;20418;-77
2023/12/11 03:45:11;;;;;;;13.93;4.90;;;11.10;99.90;;;;;;5070418;28;20431;-79
2023/12/11 03:47:37;;;;;;;8.88;3.20;;;11.10;99.90;;;;;;5071342;28;20423;-77
2023/12/11 03:50:05;;;;;;;8.32;2.85;;;11.00;99.90;;;;;;5071162;28;20431;-79
2023/12/11 03:52:33;;;;;;;9.68;3.05;;;11.00;99.90;;;;;;5068967;28;20439;-76
2023/12/11 03:55:01;;;;;;;12.25;2.88;;;11.00;99.90;;;;;;5072710;28;20506;-78
2023/12/11 03:57:27;;;;;;;8.88;2.70;;;10.90;99.90;;;;;;5071775;28;20408;-77
2023/12/11 03:59:54;;;;;;;11.40;3.70;;;10.90;99.90;;;;;;5071231;28;20485;-78
2023/12/11 04:02:21;;;;;;;8.73;3.20;;;10.90;99.90;;;;;;5072221;28;20822;-79
2023/12/11 04:04:48;;;;;;;9.23;2.53;;;10.90;99.90;;;;;;5072720;28;20425;-77
2023/12/11 04:07:15;;;;;;;12.10;3.22;;;11.00;99.90;;;;;;5083876;28;20938;-79
2023/12/11 04:09:43;;;;;;;11.57;2.80;;;11.00;99.90;;;;;;5078118;28;20454;-80
2023/12/11 04:12:10;;;;;;;9.57;3.70;;;11.00;99.90;;;;;;5076051;28;20849;-77
2023/12/11 04:14:36;;;;;;;8.30;2.78;;;11.00;99.90;;;;;;5071362;28;20434;-79
2023/12/11 04:17:03;;;;;;;8.15;2.78;;;11.00;99.90;;;;;;5068875;28;20510;-79
2023/12/11 04:19:30;;;;;;;8.00;2.78;;;11.00;99.90;;;;;;5070854;28;20504;-77
2023/12/11 04:21:57;;;;;;;8.68;2.50;;;11.00;99.90;;;;;;5071425;28;20906;-79
2023/12/11 04:24:24;;;;;;;9.85;2.50;;;11.00;99.90;;;;;;5073716;28;20419;-79
2023/12/11 04:26:52;;;;;;;10.98;2.90;;;11.00;99.90;;;;;;5071740;28;20438;-80
2023/12/11 04:29:18;;;;;;;8.45;2.30;;;11.00;99.90;;;;;;5072457;28;20427;-78
2023/12/11 04:31:45;;;;;;;9.90;3.10;;;11.00;99.90;;;;;;5071117;28;20432;-78
2023/12/11 04:34:12;;;;;;;8.50;2.80;;;11.00;99.90;;;;;;5071773;28;20422;-78
2023/12/11 04:36:42;;;;;;;9.48;2.90;;;10.90;99.90;;;;;;5072572;28;20416;-78
2023/12/11 04:39:09;;;;;;;9.07;2.75;;;10.90;99.90;;;;;;5072626;28;20419;-79
2023/12/11 04:41:35;;;;;;;8.35;2.90;;;10.90;99.90;;;;;;5070532;28;20438;-77
2023/12/11 04:44:04;;;;;;;8.73;3.20;;;11.00;99.90;;;;;;5071237;28;20431;-77
2023/12/11 04:46:31;;;;;;;6.63;2.38;;;11.00;99.90;;;;;;5071110;28;20438;-79
2023/12/11 04:48:58;;;;;;;8.15;2.40;;;11.10;99.70;;;;;;5071846;28;20428;-77
2023/12/11 04:51:24;;;;;;;11.30;3.22;;;11.20;99.40;;;;;;5071901;28;20418;-78
2023/12/11 04:53:51;;;;;;;8.57;2.85;;;11.20;99.40;;;;;;5071442;28;20418;-79
2023/12/11 04:56:18;;;;;;;9.60;2.65;;;11.20;99.90;;;;;;5069667;28;20436;-79
2023/12/11 04:58:45;;;;;;;9.10;2.65;;;11.20;99.90;;;;;;5069358;28;20785;-79
2023/12/11 05:01:13;;;;;;;10.33;3.60;;;11.20;99.80;;;;;;5069784;28;20591;-79
2023/12/11 05:03:40;;;;;;;9.18;3.03;;;11.20;99.50;;;;;;5083699;28;20396;-77
2023/12/11 05:06:08;;;;;;;8.18;2.60;;;11.20;99.90;;;;;;5090855;28;20464;-79
2023/12/11 05:08:35;;;;;;;8.18;2.65;;;11.20;99.90;;;;;;5090904;28;20489;-75
2023/12/11 05:11:02;;;;;;;6.70;2.50;;;11.10;99.90;;;;;;5083414;28;20419;-79
2023/12/11 05:13:28;;;;;;;6.93;2.40;;;11.00;99.90;;;;;;5070122;28;20436;-78
2023/12/11 05:15:55;;;;;;;10.10;3.08;;;10.90;99.90;;;;;;5073036;28;20487;-78
2023/12/11 05:18:24;;;;;;;8.95;2.50;;;10.90;99.90;;;;;;5074479;28;20404;-79
2023/12/11 05:20:50;;;;;;;6.32;2.60;;;10.90;99.90;;;;;;5074150;28;20506;-79
2023/12/11 05:23:17;;;;;;;8.75;3.08;;;10.90;99.90;;;;;;5071311;28;20805;-78
2023/12/11 05:25:44;;;;;;;8.13;3.40;;;10.90;99.90;;;;;;5070250;28;20414;-78
2023/12/11 05:28:11;;;;;;;8.98;2.60;;;11.00;99.90;;;;;;5068192;28;20534;-77
2023/12/11 05:30:38;;;;;;;7.50;2.50;;;11.00;99.90;;;;;;5070632;28;20879;-79
2023/12/11 05:33:05;;;;;;;12.00;2.95;;;10.90;99.90;;;;;;5067626;28;20459;-79
2023/12/11 05:35:33;;;;;;;10.60;2.83;;;10.70;99.90;;;;;;5069855;28;20882;-79
2023/12/11 05:38:00;;;;;;;9.53;3.60;;;10.50;99.90;;;;;;5070818;28;20403;-80
2023/12/11 05:40:27;;;;;;;10.32;2.78;;;10.30;99.90;;;;;;5069960;28;20424;-77
2023/12/11 05:42:53;;;;;;;9.77;2.97;;;10.20;99.90;;;;;;5070562;28;20515;-79
2023/12/11 05:45:20;;;;;;;8.85;2.80;;;10.10;99.90;;;;;;5070454;28;20419;-78
2023/12/11 05:47:47;;;;;;;11.35;2.97;;;10.00;99.90;;;;;;5069674;28;20451;-78
2023/12/11 05:50:14;;;;;;;8.23;2.60;;;9.90;99.90;;;;;;5068860;28;20799;-76
2023/12/11 05:52:42;;;;;;;11.25;3.03;;;9.80;99.90;;;;;;5067659;28;20438;-77
2023/12/11 05:55:09;;;;;;;9.05;2.70;;;9.80;99.90;;;;;;5068593;28;20403;-79
2023/12/11 05:57:36;;;;;;;7.95;2.42;;;9.80;99.90;;;;;;5072135;28;20894;-80
2023/12/11 06:00:04;;;;;;;11.07;2.60;;;9.90;99.90;;;;;;5072724;28;20902;-78
2023/12/11 06:02:30;;;;;;;10.38;2.50;;;10.00;99.90;;;;;;5062350;28;20403;-75
2023/12/11 06:04:57;;;;;;;6.30;2.17;;;10.00;99.90;;;;;;5036632;28;20408;-76
2023/12/11 06:07:24;;;;;;;8.07;2.45;;;10.00;99.90;;;;;;5038270;28;20422;-75
2023/12/11 06:09:52;;;;;;;6.07;2.08;;;10.10;99.90;;;;;;5064552;28;20432;-78
2023/12/11 06:12:19;;;;;;;5.30;2.00;;;10.00;99.90;;;;;;5070775;28;20411;-78
2023/12/11 06:14:46;;;;;;;8.05;2.20;;;10.00;99.90;;;;;;5068731;28;20423;-76
2023/12/11 06:17:13;;;;;;;7.88;2.65;;;10.00;99.90;;;;;;5068413;28;20515;-78
2023/12/11 06:19:42;;;;;;;7.80;2.30;;;10.00;99.90;;;;;;5069244;28;20603;-75
2023/12/11 06:22:09;;;;;;;6.72;2.13;;;10.00;99.90;;;;;;5068616;28;20438;-79
2023/12/11 06:24:38;;;;;;;8.05;1.90;;;10.00;99.90;;;;;;5068298;28;20431;-77
2023/12/11 06:27:06;;;;;;;7.38;2.47;;;10.00;99.90;;;;;;5069700;28;20416;-80
2023/12/11 06:29:33;;;;;;;9.93;2.70;;;10.00;99.90;;;;;;5069690;28;20481;-79
2023/12/11 06:32:00;;;;;;;6.28;2.00;;;9.90;99.90;;;;;;5070405;28;20430;-79
2023/12/11 06:34:27;;;;;;;7.10;1.98;;;10.00;99.90;;;;;;5069318;28;20439;-80
2023/12/11 06:36:54;;;;;;;6.70;2.00;;;9.90;99.90;;;;;;5070161;28;20407;-79
2023/12/11 06:39:20;;;;;;;8.43;2.95;;;10.00;99.90;;;;;;5070051;28;20414;-80
2023/12/11 06:41:47;;;;;;;8.18;2.50;;;10.00;99.90;;;;;;5065587;28;20756;-78
2023/12/11 06:44:15;;;;;;;6.57;1.80;;;9.90;99.90;;;;;;5068562;28;20491;-77
2023/12/11 06:46:42;;;;;;;8.30;2.20;;;10.00;99.90;;;;;;5066133;28;20427;-77
2023/12/11 06:49:09;;;;;;;7.50;2.20;;;9.90;99.90;;;;;;5069116;28;20427;-76
2023/12/11 06:51:37;;;;;;;6.60;2.10;;;10.00;99.90;;;;;;5069636;28;20421;-78
2023/12/11 06:54:04;;;;;;;8.00;2.13;;;10.00;99.90;;;;;;5069593;28;20480;-78
2023/12/11 06:56:31;;;;;;;7.28;2.28;;;10.00;99.90;;;;;;5070296;28;20842;-77
2023/12/11 06:58:58;;;;;;;8.52;2.50;;;10.00;99.90;;;;;;5073517;28;20931;-77
2023/12/11 07:01:28;;;;;;;7.32;2.10;;;10.00;99.90;;;;;;5071840;28;20431;-78
2023/12/11 07:03:55;;;;;;;6.80;2.80;;;10.00;99.90;;;;;;5073265;28;20541;-76
2023/12/11 07:06:22;;;;;;;4.90;2.13;;;10.10;99.90;;;;;;5072170;28;20490;-77
2023/12/11 07:08:49;;;;;;;6.22;2.20;;;10.10;99.90;;;;;;5071046;28;20478;-78
2023/12/11 07:11:17;;;;;;;8.40;2.70;;;10.00;99.90;;;;;;5072093;28;20446;-78
2023/12/11 07:13:44;;;;;;;8.68;2.03;;;10.00;99.90;;;;;;5073209;28;20427;-77
2023/12/11 07:16:11;;;;;;;6.97;2.30;;;10.00;99.90;;;;;;5069464;28;20937;-77
2023/12/11 07:18:39;;;;;;;7.20;2.10;;;10.10;99.90;;;;;;5073446;28;20469;-78
2023/12/11 07:21:09;;;;;;;10.25;2.67;;;10.10;99.90;;;;;;5073234;28;20430;-78
2023/12/11 07:23:36;;;;;;;5.78;2.40;;;10.10;99.90;;;;;;5072783;28;20874;-78
2023/12/11 07:26:06;;;;;;;5.45;2.33;;;10.20;99.90;;;;;;5072461;28;20438;-77
2023/12/11 07:28:32;;;;;;;10.18;3.00;;;10.20;99.90;;;;;;5080976;28;20441;-77
2023/12/11 07:31:00;;;;;;;8.93;2.60;;;10.30;99.90;;;;;;5086023;28;20451;-75
2023/12/11 07:33:27;;;;;;;10.32;2.50;;;10.40;99.90;;;;;;5090250;28;20416;-78
2023/12/11 07:35:55;;;;;;;10.68;3.10;;;10.40;99.90;;;;;;5079356;28;20958;-80
2023/12/11 07:38:22;;;;;;;8.68;2.80;;;10.40;99.90;;;;;;5075569;28;20440;-79
2023/12/11 07:40:49;;;;;;;10.77;2.47;;;10.40;99.90;;;;;;5077203;28;20531;-78
2023/12/11 07:43:16;;;;;;;5.90;2.70;;;10.50;99.90;;;;;;5074522;28;20499;-80
2023/12/11 07:45:43;;;;;;;7.97;2.40;;;10.50;99.90;;;;;;5069158;28;20430;-82
2023/12/11 07:48:10;;;;;;;8.75;2.60;;;10.50;99.90;;;;;;5074573;28;20479;-79
2023/12/11 07:50:36;;;;;;;8.10;2.90;;;10.50;99.90;;;;;;5075281;28;20427;-80
2023/12/11 07:53:05;;;;;;;7.47;2.60;;;10.50;99.90;;;;;;5074273;28;20419;-80
2023/12/11 07:55:31;;;;;;;10.40;2.90;;;10.50;99.90;;;;;;5073679;28;20416;-81
2023/12/11 07:57:58;;;;;;;6.68;2.63;;;10.50;99.90;;;;;;5071665;28;20432;-79
2023/12/11 08:00:25;;;;;;;13.00;3.72;;;10.50;99.90;;;;;;5073280;28;20498;-79
2023/12/11 08:02:52;;;;;;;6.13;2.80;;;10.50;99.90;;;;;;5071396;28;20885;-78
2023/12/11 08:05:20;;;;;;;9.05;2.90;;;10.60;99.90;;;;;;5072984;28;20416;-80
2023/12/11 08:07:46;;;;;;;8.63;3.10;;;10.60;99.90;;;;;;5072012;28;20418;-80
2023/12/11 08:10:16;;;;;;;7.55;2.42;;;10.60;99.90;;;;;;5072505;28;20956;-76
2023/12/11 08:12:43;;;;;;;9.23;2.50;;;10.70;99.90;;;;;;5072044;28;20436;-79
2023/12/11 08:15:10;;;;;;;10.68;2.90;;;10.70;99.90;;;;;;5071392;28;20789;-79
2023/12/11 08:17:37;;;;;;;8.15;3.63;;;10.70;99.90;;;;;;5070445;28;20444;-78
2023/12/11 08:20:05;;;;;;;8.60;2.42;;;10.70;99.90;;;;;;5072606;28;20419;-79
2023/12/11 08:22:32;;;;;;;8.68;2.50;;;10.70;99.90;;;;;;5066718;28;20427;-77
2023/12/11 08:24:58;;;;;;;8.60;2.78;;;10.70;99.90;;;;;;5073847;28;20411;-77
2023/12/11 08:27:27;;;;;;;9.57;2.60;;;10.70;99.90;;;;;;5072183;28;20411;-76
2023/12/11 08:29:53;;;;;;;9.32;2.70;;;10.80;99.90;;;;;;5068741;28;20428;-76
2023/12/11 08:32:21;;;;;;;8.65;2.85;;;10.80;99.90;;;;;;5071525;28;20457;-77
2023/12/11 08:34:47;;;;;;;10.27;3.40;;;10.90;99.90;;;;;;5071276;28;20495;-78
2023/12/11 08:37:14;;;;;;;9.40;2.55;;;10.90;99.90;;;;;;5070166;28;20438;-78
2023/12/11 08:39:42;;;;;;;7.55;3.20;;;10.90;99.90;;;;;;5071145;28;20431;-78
2023/12/11 08:42:08;;;;;;;9.43;2.87;;;11.00;99.90;;;;;;5069770;28;20526;-78
2023/12/11 08:44:36;;;;;;;9.30;2.60;;;11.00;99.90;;;;;;5072062;28;20412;-77
2023/12/11 08:47:07;;;;;;;9.27;2.50;;;11.10;99.90;;;;;;5070120;28;20461;-78
2023/12/11 08:49:34;;;;;;;7.05;2.28;;;11.10;99.90;;;;;;5072082;28;20922;-78
2023/12/11 08:52:02;;;;;;;12.10;2.90;;;11.10;99.90;;;;;;5072226;28;20411;-77
2023/12/11 08:54:28;;;;;;;7.65;3.03;;;11.10;99.90;;;;;;5069788;28;20431;-77
2023/12/11 08:56:55;;;;;;;8.77;2.53;;;11.10;99.90;;;;;;5070806;28;20411;-78
2023/12/11 08:59:22;;;;;;;9.00;2.90;;;11.10;99.90;;;;;;5071921;28;20422;-78
2023/12/11 09:01:50;;;;;;;9.03;2.73;;;11.20;99.90;;;;;;5069739;28;21005;-77
2023/12/11 09:04:17;;;;;;;8.55;2.58;;;11.20;99.90;;;;;;5067232;28;20451;-79
2023/12/11 09:06:44;;;;;;;9.38;2.30;;;11.20;99.90;;;;;;5069060;28;20985;-80
2023/12/11 09:09:13;;;;;;;8.52;2.90;;;11.20;99.90;;;;;;5070595;28;20470;-79
2023/12/11 09:11:40;;;;;;;7.70;2.40;;;11.30;99.90;;;;;;5070654;28;20419;-78
2023/12/11 09:14:07;;;;;;;9.00;3.25;;;11.30;99.90;;;;;;5070596;28;20490;-79
2023/12/11 09:16:34;;;;;;;9.02;2.38;;;11.30;99.90;;;;;;5069248;28;20514;-80
2023/12/11 09:19:02;;;;;;;7.07;2.42;;;11.40;99.90;;;;;;5070171;28;20408;-76
2023/12/11 09:21:29;;;;;;;7.72;2.30;;;11.40;99.90;;;;;;5072637;28;20469;-78
2023/12/11 09:23:55;;;;;;;6.20;2.40;;;11.40;99.90;;;;;;5072525;28;20502;-78
2023/12/11 09:26:22;;;;;;;7.40;2.40;;;11.40;99.90;;;;;;5071360;28;20411;-77
2023/12/11 09:28:49;;;;;;;6.68;2.20;;;11.40;99.90;;;;;;5071040;28;20516;-78
2023/12/11 09:31:19;;;;;;;8.20;2.40;;;11.50;99.90;;;;;;5071704;28;20435;-78
2023/12/11 09:33:46;;;;;;;8.27;2.20;;;11.50;99.90;;;;;;5070917;28;20419;-78
2023/12/11 09:36:14;;;;;;;6.50;2.20;;;11.50;99.90;;;;;;5069912;28;20418;-77
2023/12/11 09:38:42;;;;;;;8.52;2.50;;;11.50;99.90;;;;;;5071709;28;20411;-76
2023/12/11 09:41:09;;;;;;;8.13;2.08;;;11.50;99.90;;;;;;5071330;28;20813;-76
2023/12/11 09:43:36;;;;;;;7.13;2.63;;;11.50;99.90;;;;;;5070751;28;21030;-77
2023/12/11 09:46:07;;;;;;;7.53;2.40;;;11.60;99.90;;;;;;5070609;22;20546;-75
2023/12/11 09:48:34;;;;;;;7.73;2.33;;;11.60;99.90;;;;;;5041901;28;20558;-75
2023/12/11 09:51:02;;;;;;;8.63;2.58;;;11.60;99.90;;;;;;5045081;28;20426;-75
2023/12/11 09:53:33;;;;;;;8.30;3.03;;;11.60;99.90;;;;;;5039642;28;20538;-74
2023/12/11 09:56:00;;;;;;;9.95;2.78;;;11.60;99.90;;;;;;5037538;28;20422;-76
2023/12/11 09:58:27;;;;;;;7.00;3.00;;;11.50;99.90;;;;;;5044185;28;20421;-76
2023/12/11 10:01:00;;;;;;;9.45;2.80;;;11.50;99.90;;;;;;5041251;28;20449;-75
2023/12/11 10:03:27;;;;;;;7.45;2.40;;;11.60;99.90;;;;;;5038197;28;20442;-74
2023/12/11 10:05:59;;;;;;;8.10;2.35;;;11.50;99.90;;;;;;5033294;28;20409;-75
2023/12/11 10:08:25;;;;;;;8.13;2.40;;;11.50;99.90;;;;;;5030040;28;20424;-75
2023/12/11 10:11:09;;;;;;;7.85;2.55;;;11.50;99.90;;;;;;5045430;28;20464;-75
2023/12/11 10:13:36;;;;;;;7.23;2.17;;;11.50;99.90;;;;;;5045190;28;20409;-77
2023/12/11 10:16:03;;;;;;;9.88;2.40;;;11.50;99.90;;;;;;5039444;28;20928;-77
2023/12/11 10:18:30;;;;;;;8.80;2.30;;;11.50;99.90;;;;;;5036829;28;20443;-77
2023/12/11 10:20:57;;;;;;;7.03;2.05;;;11.40;99.90;;;;;;5048484;28;20501;-76
2023/12/11 10:23:24;;;;;;;7.85;2.35;;;11.40;99.90;;;;;;5046007;28;20862;-76
2023/12/11 10:25:53;;;;;;;11.00;3.88;;;11.50;99.90;;;;;;5037785;28;20417;-77
2023/12/11 10:28:23;;;;;;;9.88;3.10;;;11.50;99.90;;;;;;5045433;28;20413;-76
2023/12/11 10:30:52;;;;;;;7.82;2.50;;;11.50;99.90;;;;;;5040470;28;20425;-77
2023/12/11 10:33:19;;;;;;;9.50;2.50;;;11.40;99.90;;;;;;5040423;28;20504;-76
2023/12/11 10:35:46;;;;;;;9.60;3.20;;;11.40;99.90;;;;;;5043554;28;20407;-77
2023/12/11 10:38:22;;;;;;;9.87;2.80;;;11.50;99.90;;;;;;5044608;28;20441;-76
2023/12/11 10:40:50;;;;;;;9.27;2.38;;;11.40;99.90;;;;;;5039843;28;20411;-77
2023/12/11 10:43:17;;;;;;;9.18;2.60;;;11.40;99.90;;;;;;5047479;28;20424;-77
2023/12/11 10:45:45;;;;;;;7.80;2.20;;;11.40;99.90;;;;;;5045329;28;20436;-76
2023/12/11 10:48:12;;;;;;;8.45;2.75;;;11.40;99.90;;;;;;5050660;28;20971;-75
2023/12/11 10:50:40;;;;;;;5.10;2.17;;;11.40;99.90;;;;;;5049640;28;20452;-76
2023/12/11 10:53:11;;;;;;;9.55;2.83;;;11.40;99.90;;;;;;5052897;28;20421;-81
2023/12/11 10:55:38;;;;;;;7.13;2.03;;;11.40;99.90;;;;;;5041343;28;20530;-77
2023/12/11 10:58:08;;;;;;;8.68;2.30;;;11.40;99.90;;;;;;5037822;28;20415;-78
2023/12/11 11:00:35;;;;;;;9.32;2.60;;;11.40;99.90;;;;;;5036584;28;20428;-76
2023/12/11 11:03:06;;;;;;;7.78;2.63;;;11.40;99.90;;;;;;5040362;28;20510;-76
2023/12/11 11:05:33;;;;;;;7.88;2.88;;;11.40;99.90;;;;;;5043199;28;20422;-75
2023/12/11 11:08:12;;;;;;;7.93;2.55;;;11.30;99.90;;;;;;5044488;28;20424;-75
2023/12/11 11:10:43;;;;;;;10.13;2.90;;;11.30;99.90;;;;;;5030130;28;20489;-75
2023/12/11 11:13:17;;;;;;;7.35;2.80;;;11.30;99.90;;;;;;5037760;28;20423;-75
2023/12/11 11:15:51;;;;;;;7.63;2.30;;;11.20;99.90;;;;;;5041808;28;20454;-76
2023/12/11 11:18:20;;;;;;;7.70;3.25;;;11.20;99.90;;;;;;5035856;28;20417;-77
2023/12/11 11:21:08;;;;;;;9.10;3.40;;;11.30;99.90;;;;;;5035563;28;20495;-76
2023/12/11 11:23:42;;;;;;;10.27;2.90;;;11.30;99.90;;;;;;5042448;28;20413;-76
2023/12/11 11:26:30;;;;;;;8.65;2.50;;;11.30;99.90;;;;;;5040743;28;20424;-76
2023/12/11 11:28:57;;;;;;;8.95;3.03;;;11.30;99.90;;;;;;5043735;28;20522;-77
2023/12/11 11:31:47;;;;;;;8.83;3.20;;;11.20;99.90;;;;;;5033743;28;20457;-78
2023/12/11 11:34:16;;;;;;;7.25;3.42;;;11.10;99.90;;;;;;5040626;28;20454;-75
2023/12/11 11:36:47;;;;;;;7.73;2.53;;;11.10;99.90;;;;;;5036146;28;20956;-77
2023/12/11 11:39:14;;;;;;;8.52;3.00;;;11.10;99.90;;;;;;5032747;28;20411;-77
2023/12/11 11:41:42;;;;;;;10.70;3.20;;;11.10;99.90;;;;;;5041129;28;20413;-78
2023/12/11 11:44:10;;;;;;;7.25;2.65;;;11.10;99.90;;;;;;5039040;28;20433;-77
2023/12/11 11:46:51;;;;;;;12.23;3.88;;;11.00;99.90;;;;;;5042996;28;20429;-80
2023/12/11 11:49:27;;;;;;;9.45;3.20;;;10.90;99.90;;;;;;5036762;28;20500;-78
2023/12/11 11:51:54;;;;;;;10.35;3.10;;;10.80;99.90;;;;;;5035226;28;20427;-78
2023/12/11 11:54:22;;;;;;;10.48;4.30;;;10.60;99.90;;;;;;5041298;28;20786;-78
2023/12/11 11:56:49;;;;;;;8.48;3.17;;;10.50;99.90;;;;;;5038527;28;20810;-72
2023/12/11 11:59:16;;;;;;;8.98;3.20;;;10.50;99.90;;;;;;5041431;28;20436;-76
2023/12/11 12:01:49;;;;;;;9.02;3.00;;;10.60;99.90;;;;;;5030994;28;20703;-77
2023/12/11 12:04:27;;;;;;;9.75;3.20;;;10.50;99.90;;;;;;5037684;28;20537;-77
2023/12/11 12:06:55;;;;;;;7.90;2.60;;;10.60;99.90;;;;;;5026274;28;20441;-77
2023/12/11 12:09:22;;;;;;;7.53;2.60;;;10.50;99.90;;;;;;5038594;28;20425;-77
2023/12/11 12:11:49;;;;;;;9.73;2.58;;;10.60;99.90;;;;;;5030715;28;20829;-76
2023/12/11 12:14:16;;;;;;;8.80;2.88;;;10.60;99.90;;;;;;5041676;28;20441;-75
2023/12/11 12:16:43;;;;;;;10.23;3.53;;;10.50;99.90;;;;;;5036382;28;20434;-76
2023/12/11 12:19:10;;;;;;;8.10;2.83;;;10.40;99.90;;;;;;5036731;28;20429;-75
2023/12/11 12:21:51;;;;;;;9.07;2.60;;;10.40;99.90;;;;;;5036625;28;20431;-76
2023/12/11 12:24:18;;;;;;;10.30;3.40;;;10.20;99.90;;;;;;5034394;28;20445;-78
2023/12/11 12:26:46;;;;;;;8.60;2.78;;;10.10;99.90;;;;;;5042598;28;20467;-77
2023/12/11 12:29:14;;;;;;;10.85;3.28;;;10.00;99.90;;;;;;5040094;28;20452;-75
2023/12/11 12:31:41;;;;;;;11.82;4.30;;;9.90;99.90;;;;;;5032527;28;20429;-77
2023/12/11 12:34:08;;;;;;;11.82;4.07;;;9.80;99.90;;;;;;5041279;28;20444;-77
2023/12/11 12:36:36;;;;;;;9.37;3.60;;;9.60;99.90;;;;;;5045318;28;20570;-77
2023/12/11 12:39:05;;;;;;;12.17;3.63;;;9.50;99.90;;;;;;5032500;28;20434;-76
2023/12/11 12:41:32;;;;;;;9.20;2.90;;;9.40;99.90;;;;;;5040410;28;20462;-76
2023/12/11 12:43:59;;;;;;;10.35;3.00;;;9.30;99.90;;;;;;5038972;28;20891;-76
2023/12/11 12:46:27;;;;;;;7.65;2.67;;;9.20;99.90;;;;;;5035868;28;20510;-77
2023/12/11 12:48:54;;;;;;;10.07;3.05;;;9.20;99.90;;;;;;5029026;28;20453;-76